Time;durP1;ratioP1;P1;durP2;ratioP2;P2;SDS_P1;SDS_P2;PMS_P1;PMS_P2;Temp;Humidity;BMP_temperature;BMP_pressure;BME280_temperature;BME280_humidity;BME280_pressure;Samples;Min_cycle;Max_cycle;Signal;HPM_P1;HPM_P2
2024/02/10 00:01:18;;;;;;;;;36.50;31.25;;;;;-143.90;100.00;74107.66;4879884;28;101818;-72
2024/02/10 00:03:45;;;;;;;;;45.50;36.50;;;;;-143.90;100.00;74111.78;4865119;28;108272;-72
2024/02/10 00:06:16;;;;;;;;;32.25;29.50;;;;;-143.90;100.00;74113.84;4872795;28;101661;-72
2024/02/10 00:08:43;;;;;;;;;30.50;28.25;;;;;-143.90;100.00;74107.66;4867564;28;102794;-72
2024/02/10 00:11:12;;;;;;;;;33.00;26.25;;;;;-143.90;100.00;74107.66;4871786;28;101817;-72
2024/02/10 00:13:41;;;;;;;;;26.75;21.25;;;;;-143.90;100.00;74101.44;4868351;28;103368;-72
2024/02/10 00:16:10;;;;;;;;;30.75;28.50;;;;;-143.90;100.00;74109.72;4867739;28;103020;-72
2024/02/10 00:18:40;;;;;;;;;29.50;27.50;;;;;-143.90;100.00;74101.44;4868385;28;101604;-72
2024/02/10 00:21:07;;;;;;;;;24.00;23.00;;;;;-143.90;100.00;74099.38;4871693;28;102165;-72
2024/02/10 00:23:34;;;;;;;;;46.25;39.50;;;;;-143.90;100.00;74091.13;4867784;28;103995;-73
2024/02/10 00:26:03;;;;;;;;;42.25;38.50;;;;;-143.90;100.00;74086.97;4850489;28;102062;-73
2024/02/10 00:28:35;;;;;;;;;32.25;30.50;;;;;-143.90;100.00;74074.59;4855195;28;102024;-72
2024/02/10 00:31:02;;;;;;;;;25.50;24.75;;;;;-143.90;100.00;74070.44;4874666;28;102284;-72
2024/02/10 00:33:30;;;;;;;;;26.50;21.25;;;;;-143.90;100.00;74070.44;4864935;28;103555;-72
2024/02/10 00:35:57;;;;;;;;;24.00;19.75;;;;;-143.90;100.00;74060.13;4863796;28;102864;-72
2024/02/10 00:38:24;;;;;;;;;23.25;17.75;;;;;-143.90;100.00;74047.72;4873271;28;101586;-73
2024/02/10 00:40:51;;;;;;;;;19.00;17.00;;;;;-143.90;100.00;74043.59;4870050;28;101930;-73
2024/02/10 00:43:19;;;;;;;;;15.00;14.50;;;;;-143.90;100.00;74039.44;4874187;28;103442;-73
2024/02/10 00:45:46;;;;;;;;;15.50;14.00;;;;;-143.90;100.00;74033.25;4862158;28;101967;-73
2024/02/10 00:48:14;;;;;;;;;17.75;14.25;;;;;-143.90;100.00;74027.03;4862814;28;102592;-73
2024/02/10 00:50:41;;;;;;;;;12.25;12.25;;;;;-143.90;100.00;74022.91;4870478;28;103304;-73
2024/02/10 00:53:09;;;;;;;;;18.00;14.75;;;;;-143.90;100.00;74014.66;4849017;28;103433;-73
2024/02/10 00:55:35;;;;;;;;;20.25;18.25;;;;;-143.90;100.00;74018.78;4858848;28;102043;-73
2024/02/10 00:58:06;;;;;;;;;18.00;15.25;;;;;-143.90;100.00;74010.50;4860130;28;101559;-73
2024/02/10 01:00:34;;;;;;;;;15.25;13.50;;;;;-143.90;100.00;74004.31;4862417;28;102928;-73
2024/02/10 01:03:06;;;;;;;;;23.50;17.75;;;;;-143.90;100.00;74000.19;4853880;28;102664;-73
2024/02/10 01:05:33;;;;;;;;;20.75;18.50;;;;;-143.90;100.00;73993.97;4860865;28;101589;-73
2024/02/10 01:07:59;;;;;;;;;16.00;14.75;;;;;-143.90;100.00;73985.72;4862896;28;102992;-73
2024/02/10 01:10:30;;;;;;;;;19.00;18.25;;;;;-143.90;100.00;73985.72;4867878;28;102549;-73
2024/02/10 01:13:03;;;;;;;;;19.50;18.00;;;;;-143.90;100.00;73977.44;4857976;28;103518;-73
2024/02/10 01:15:32;;;;;;;;;15.50;13.25;;;;;-143.90;100.00;73977.44;4867381;28;101910;-73
2024/02/10 01:18:02;;;;;;;;;17.75;16.00;;;;;-143.90;100.00;73973.31;4859786;28;101637;-73
2024/02/10 01:20:29;;;;;;;;;22.50;19.50;;;;;-143.90;100.00;73965.03;4862290;28;102155;-71
2024/02/10 01:22:57;;;;;;;;;19.25;18.00;;;;;-143.90;100.00;73962.97;4869179;28;103127;-71
2024/02/10 01:25:24;;;;;;;;;23.50;20.00;;;;;-143.90;100.00;73960.91;4866789;28;101912;-71
2024/02/10 01:27:51;;;;;;;;;20.00;14.75;;;;;-143.90;100.00;73954.72;4859562;28;101907;-71
2024/02/10 01:30:20;;;;;;;;;20.75;16.75;;;;;-143.90;100.00;73952.63;4869802;28;102868;-71
2024/02/10 01:32:47;;;;;;;;;19.75;17.00;;;;;-143.90;100.00;73956.78;4860817;28;108209;-72
2024/02/10 01:35:13;;;;;;;;;24.25;21.25;;;;;-143.90;100.00;73952.63;4860953;28;101880;-72
2024/02/10 01:37:40;;;;;;;;;18.75;17.75;;;;;-143.90;100.00;73954.72;4858089;28;102106;-72
2024/02/10 01:40:11;;;;;;;;;22.50;18.00;;;;;-143.90;100.00;73965.03;4859669;28;101970;-72
2024/02/10 01:42:37;;;;;;;;;19.00;15.25;;;;;-143.90;100.00;73965.03;4860541;28;103523;-72
2024/02/10 01:45:08;;;;;;;;;20.25;19.00;;;;;-143.90;100.00;73956.78;4858495;28;103107;-72
2024/02/10 01:47:36;;;;;;;;;23.25;17.25;;;;;-143.90;100.00;73965.03;4862372;28;106203;-72
2024/02/10 01:50:07;;;;;;;;;15.75;15.25;;;;;-143.90;100.00;73965.03;4856986;28;101789;-72
2024/02/10 01:52:38;;;;;;;;;19.75;19.00;;;;;-143.90;100.00;73971.25;4867000;28;103538;-71
2024/02/10 01:55:09;;;;;;;;;22.00;17.75;;;;;-143.90;100.00;73973.31;4862219;28;102107;-72
2024/02/10 01:57:36;;;;;;;;;14.75;13.50;;;;;-143.90;100.00;73971.25;4860602;28;102278;-72
2024/02/10 02:00:05;;;;;;;;;15.75;13.25;;;;;-143.90;100.00;73960.91;4864919;28;101745;-72
2024/02/10 02:02:33;;;;;;;;;12.75;11.50;;;;;-143.90;100.00;73960.91;4860952;28;103508;-72
2024/02/10 02:05:03;;;;;;;;;14.25;12.25;;;;;-143.90;100.00;73965.03;4860604;28;103766;-72
2024/02/10 02:07:30;;;;;;;;;9.50;8.75;;;;;-143.90;100.00;73973.31;4863654;28;102155;-72
2024/02/10 02:09:59;;;;;;;;;14.75;12.00;;;;;-143.90;100.00;73969.19;4859421;28;102582;-72
2024/02/10 02:12:27;;;;;;;;;17.50;17.50;;;;;-143.90;100.00;73973.31;4859785;28;104344;-72
2024/02/10 02:14:57;;;;;;;;;9.75;9.00;;;;;-143.90;100.00;73969.19;4867772;28;102021;-72
2024/02/10 02:17:24;;;;;;;;;11.00;7.00;;;;;-143.90;100.00;73969.19;4866128;28;102045;-72
2024/02/10 02:19:51;;;;;;;;;11.00;10.00;;;;;-143.90;100.00;73973.31;4852429;28;102200;-72
2024/02/10 02:22:18;;;;;;;;;9.75;8.00;;;;;-143.90;100.00;73973.31;4863491;28;108060;-73
2024/02/10 02:24:46;;;;;;;;;15.50;11.50;;;;;-143.90;100.00;73975.38;4864048;28;101853;-72
2024/02/10 02:27:14;;;;;;;;;11.75;10.50;;;;;-143.90;100.00;73969.19;4864868;28;102004;-72
2024/02/10 02:29:40;;;;;;;;;15.00;13.00;;;;;-143.90;100.00;73969.19;4862846;28;101637;-73
2024/02/10 02:32:10;;;;;;;;;8.00;7.25;;;;;-143.90;100.00;73965.03;4864457;28;103746;-73
2024/02/10 02:34:36;;;;;;;;;8.50;8.50;;;;;-143.90;100.00;73958.84;4862212;28;103596;-72
2024/02/10 02:37:03;;;;;;;;;11.50;11.00;;;;;-143.90;100.00;73965.03;4858716;28;102087;-73
2024/02/10 02:39:33;;;;;;;;;14.00;11.75;;;;;-143.90;100.00;73965.03;4859928;28;102992;-73
2024/02/10 02:42:02;;;;;;;;;11.50;9.50;;;;;-143.90;100.00;73956.78;4855453;28;103629;-72
2024/02/10 02:44:29;;;;;;;;;13.00;11.00;;;;;-143.90;100.00;73956.78;4857438;28;102149;-72
2024/02/10 02:46:56;;;;;;;;;20.00;17.75;;;;;-143.90;100.00;73965.03;4846060;28;102121;-72
2024/02/10 02:49:23;;;;;;;;;19.75;16.50;;;;;-143.90;100.00;73969.19;4858249;28;103416;-72
2024/02/10 02:51:50;;;;;;;;;18.75;16.00;;;;;-143.90;100.00;73973.31;4858339;28;103597;-73
2024/02/10 02:54:18;;;;;;;;;17.75;15.00;;;;;-143.90;100.00;73969.19;4864657;28;101637;-72
2024/02/10 02:56:50;;;;;;;;;13.75;13.00;;;;;-143.90;100.00;73965.03;4862960;28;103086;-72
2024/02/10 02:59:19;;;;;;;;;16.50;15.75;;;;;-143.90;100.00;73969.19;4866264;28;102871;-73
2024/02/10 03:01:51;;;;;;;;;16.00;13.25;;;;;-143.90;100.00;73969.19;4852746;28;104087;-72
2024/02/10 03:04:20;;;;;;;;;11.50;11.50;;;;;-143.90;100.00;73969.19;4855563;28;101494;-73
2024/02/10 03:06:50;;;;;;;;;16.00;14.00;;;;;-143.90;100.00;73965.03;4861964;28;103044;-72
2024/02/10 03:09:17;;;;;;;;;9.00;6.50;;;;;-143.90;100.00;73965.03;4860152;28;102105;-73
2024/02/10 03:11:43;;;;;;;;;13.50;10.00;;;;;-143.90;100.00;73962.97;4860341;28;103939;-73
2024/02/10 03:14:10;;;;;;;;;9.00;7.00;;;;;-143.90;100.00;73956.78;4858638;28;102099;-73
2024/02/10 03:16:38;;;;;;;;;20.25;17.25;;;;;-143.90;100.00;73960.91;4860102;28;101509;-73
2024/02/10 03:19:06;;;;;;;;;21.50;20.75;;;;;-143.90;100.00;73965.03;4849190;28;102222;-74
2024/02/10 03:21:35;;;;;;;;;19.25;17.25;;;;;-143.90;100.00;73979.50;4869951;28;103439;-73
2024/02/10 03:24:03;;;;;;;;;13.25;12.75;;;;;-143.90;100.00;73965.03;4857701;28;101859;-73
2024/02/10 03:26:31;;;;;;;;;14.00;11.00;;;;;-143.90;100.00;73965.03;4861997;28;101783;-73
2024/02/10 03:29:03;;;;;;;;;12.75;10.75;;;;;-143.90;100.00;73962.97;4869574;28;101850;-73
2024/02/10 03:31:30;;;;;;;;;12.50;11.75;;;;;-143.90;100.00;73956.78;4844340;28;104752;-73
2024/02/10 03:33:57;;;;;;;;;10.00;8.50;;;;;-143.90;100.00;73960.91;4854782;28;102340;-73
2024/02/10 03:36:24;;;;;;;;;9.75;8.00;;;;;-143.90;100.00;73960.91;4868456;28;101849;-73
2024/02/10 03:39:03;;;;;;;;;9.50;8.25;;;;;-143.90;100.00;73965.03;4870491;28;101864;-73
2024/02/10 03:41:30;;;;;;;;;3.00;3.00;;;;;-143.90;100.00;73965.03;4864024;28;108073;-73
2024/02/10 03:43:56;;;;;;;;;7.75;7.00;;;;;-143.90;100.00;73956.78;4861277;28;103065;-72
2024/02/10 03:46:23;;;;;;;;;3.75;3.00;;;;;-143.90;100.00;73960.91;4865251;28;101837;-73
2024/02/10 03:48:52;;;;;;;;;3.50;3.00;;;;;-143.90;100.00;73962.97;4865470;28;101632;-72
2024/02/10 03:51:19;;;;;;;;;4.00;3.50;;;;;-143.90;100.00;73956.78;4865938;28;108180;-72
2024/02/10 03:53:45;;;;;;;;;3.00;3.00;;;;;-143.90;100.00;73958.84;4859816;28;101690;-70
2024/02/10 03:56:12;;;;;;;;;5.00;4.00;;;;;-143.90;100.00;73958.84;4867721;28;102335;-72
2024/02/10 03:58:43;;;;;;;;;3.00;3.00;;;;;-143.90;100.00;73956.78;4869369;28;102368;-72
2024/02/10 04:01:14;;;;;;;;;4.50;3.50;;;;;-143.90;100.00;73954.72;4866939;28;103385;-73
2024/02/10 04:03:44;;;;;;;;;8.00;5.00;;;;;-143.90;100.00;73952.63;4864663;28;101486;-70
2024/02/10 04:06:15;;;;;;;;;8.25;5.00;;;;;-143.90;100.00;73958.84;4863671;28;101779;-72
2024/02/10 04:08:46;;;;;;;;;3.25;3.25;;;;;-143.90;100.00;73952.63;4852326;28;101825;-73
2024/02/10 04:11:17;;;;;;;;;2.50;1.75;;;;;-143.90;100.00;73946.44;4870252;28;103554;-72
2024/02/10 04:13:45;;;;;;;;;3.00;3.00;;;;;-143.90;100.00;73948.50;4864188;28;101879;-72
2024/02/10 04:16:13;;;;;;;;;5.00;5.00;;;;;-143.90;100.00;73944.38;4865458;28;102686;-72
2024/02/10 04:18:41;;;;;;;;;8.00;8.00;;;;;-143.90;100.00;73954.72;4866579;28;101871;-73
2024/02/10 04:21:09;;;;;;;;;10.25;9.00;;;;;-143.90;100.00;73950.56;4861684;28;108304;-73
2024/02/10 04:23:39;;;;;;;;;8.50;7.50;;;;;-143.90;100.00;73948.50;4866029;28;102071;-73
2024/02/10 04:26:07;;;;;;;;;9.00;6.00;;;;;-143.90;100.00;73946.44;4862262;28;102605;-71
2024/02/10 04:28:34;;;;;;;;;6.25;3.75;;;;;-143.90;100.00;73948.50;4864721;28;101926;-71
2024/02/10 04:31:00;;;;;;;;;6.50;3.75;;;;;-143.90;100.00;73944.38;4865300;28;103304;-72
2024/02/10 04:33:27;;;;;;;;;6.00;6.00;;;;;-143.90;100.00;73948.50;4865668;28;102188;-71
2024/02/10 04:35:54;;;;;;;;;5.00;5.00;;;;;-143.90;100.00;73948.50;4856745;28;101939;-71
2024/02/10 04:38:22;;;;;;;;;6.00;4.00;;;;;-143.90;100.00;73944.38;4865822;28;102016;-71
2024/02/10 04:40:50;;;;;;;;;5.00;5.00;;;;;-143.90;100.00;73936.09;4859551;28;106957;-72
2024/02/10 04:43:19;;;;;;;;;7.00;5.50;;;;;-143.90;100.00;73936.09;4849502;28;101759;-72
2024/02/10 04:45:48;;;;;;;;;6.50;6.00;;;;;-143.90;100.00;73938.19;4853796;28;101964;-71
2024/02/10 04:48:19;;;;;;;;;9.50;9.00;;;;;-143.90;100.00;73940.25;4851127;28;101732;-72
2024/02/10 04:50:47;;;;;;;;;8.75;8.75;;;;;-143.90;100.00;73936.09;4862436;28;103352;-72
2024/02/10 04:53:15;;;;;;;;;14.50;12.50;;;;;-143.90;100.00;73936.09;4864455;28;104857;-72
2024/02/10 04:55:42;;;;;;;;;15.25;14.25;;;;;-143.90;100.00;73948.50;4870048;28;102277;-71
2024/02/10 04:58:12;;;;;;;;;23.00;20.25;;;;;-143.90;100.00;73946.44;4870633;28;102147;-71
2024/02/10 05:00:39;;;;;;;;;18.50;13.50;;;;;-143.90;100.00;73952.63;4870783;28;103439;-72
2024/02/10 05:03:06;;;;;;;;;11.00;9.00;;;;;-143.90;100.00;73952.63;4867518;28;101577;-72
2024/02/10 05:05:32;;;;;;;;;25.00;20.00;;;;;-143.90;100.00;73960.91;4871366;28;102069;-72
2024/02/10 05:07:59;;;;;;;;;21.00;18.00;;;;;-143.90;100.00;73965.03;4860339;28;102098;-72
2024/02/10 05:10:26;;;;;;;;;17.75;17.00;;;;;-143.90;100.00;73965.03;4872292;28;103872;-72
2024/02/10 05:12:55;;;;;;;;;21.00;20.50;;;;;-143.90;100.00;73958.84;4874462;28;103999;-72
2024/02/10 05:15:25;;;;;;;;;27.75;20.25;;;;;-143.90;100.00;73958.84;4853514;28;101827;-72
2024/02/10 05:17:53;;;;;;;;;22.50;19.50;;;;;-143.90;100.00;73958.84;4865747;28;101910;-72
2024/02/10 05:20:26;;;;;;;;;19.75;15.75;;;;;-143.90;100.00;73962.97;4861461;28;107914;-72
2024/02/10 05:22:58;;;;;;;;;14.25;11.25;;;;;-143.90;100.00;73960.91;4868083;28;102548;-72
2024/02/10 05:25:28;;;;;;;;;13.25;11.50;;;;;-143.90;100.00;73960.91;4859659;28;101520;-72
2024/02/10 05:28:00;;;;;;;;;13.75;11.25;;;;;-143.90;100.00;73952.63;4858957;28;102443;-71
2024/02/10 05:30:27;;;;;;;;;10.25;10.00;;;;;-143.90;100.00;73952.63;4849319;28;102665;-72
2024/02/10 05:32:56;;;;;;;;;12.75;11.00;;;;;-143.90;100.00;73950.56;4854401;28;103919;-71
2024/02/10 05:35:24;;;;;;;;;1.00;0.00;;;;;-143.90;100.00;73952.63;4866451;28;103003;-72
2024/02/10 05:37:56;;;;;;;;;10.00;8.75;;;;;-143.90;100.00;73950.56;4862846;28;101921;-72
2024/02/10 05:40:24;;;;;;;;;9.75;8.25;;;;;-143.90;100.00;73958.84;4865520;28;108413;-72
2024/02/10 05:42:52;;;;;;;;;9.00;8.25;;;;;-143.90;100.00;73956.78;4862589;28;101930;-72
2024/02/10 05:45:21;;;;;;;;;4.50;4.00;;;;;-143.90;100.00;73952.63;4865331;28;102313;-72
2024/02/10 05:47:50;;;;;;;;;5.00;4.00;;;;;-143.90;100.00;73958.84;4856665;28;101975;-72
2024/02/10 05:50:25;;;;;;;;;3.25;3.00;;;;;-143.90;100.00;73948.50;4861403;28;103822;-72
2024/02/10 05:52:53;;;;;;;;;3.50;3.00;;;;;-143.90;100.00;73954.72;4863818;28;101958;-72
2024/02/10 05:55:25;;;;;;;;;5.50;4.00;;;;;-143.90;100.00;73948.50;4870847;28;104022;-72
2024/02/10 05:57:58;;;;;;;;;3.50;2.75;;;;;-143.90;100.00;73952.63;4858810;28;102118;-72
2024/02/10 06:00:25;;;;;;;;;3.00;3.00;;;;;-143.90;100.00;73948.50;4858603;28;107856;-71
2024/02/10 06:02:53;;;;;;;;;6.00;4.00;;;;;-143.90;100.00;73948.50;4869964;28;101880;-72
2024/02/10 06:05:21;;;;;;;;;8.75;7.00;;;;;-143.90;100.00;73950.56;4862104;28;101881;-72
2024/02/10 06:07:54;;;;;;;;;9.25;8.25;;;;;-143.90;100.00;73950.56;4836063;28;102624;-72
2024/02/10 06:10:21;;;;;;;;;8.75;7.25;;;;;-143.90;100.00;73950.56;4863086;28;109361;-72
2024/02/10 06:12:49;;;;;;;;;7.25;7.25;;;;;-143.90;100.00;73942.31;4864406;28;103341;-72
2024/02/10 06:15:17;;;;;;;;;7.00;4.00;;;;;-143.90;100.00;73940.25;4848837;28;102367;-72
2024/02/10 06:17:49;;;;;;;;;7.25;6.25;;;;;-143.90;100.00;73940.25;4861189;28;106187;-72
2024/02/10 06:20:16;;;;;;;;;7.50;7.50;;;;;-143.90;100.00;73942.31;4859106;28;103571;-72
2024/02/10 06:22:48;;;;;;;;;6.75;4.00;;;;;-143.90;100.00;73936.09;4860360;28;101558;-72
2024/02/10 06:25:15;;;;;;;;;5.50;3.25;;;;;-143.90;100.00;73936.09;4860508;28;101961;-71
2024/02/10 06:27:45;;;;;;;;;9.00;7.50;;;;;-143.90;100.00;73944.38;4861270;28;102413;-71
2024/02/10 06:30:14;;;;;;;;;7.25;5.50;;;;;-143.90;100.00;73940.25;4849036;28;103952;-71
2024/02/10 06:32:41;;;;;;;;;8.00;7.00;;;;;-143.90;100.00;73944.38;4863395;28;102626;-72
2024/02/10 06:35:11;;;;;;;;;14.75;13.50;;;;;-143.90;100.00;73946.44;4859402;28;102426;-72
2024/02/10 06:37:40;;;;;;;;;15.50;12.50;;;;;-143.90;100.00;73956.78;4859066;28;102719;-71
2024/02/10 06:40:08;;;;;;;;;14.75;13.25;;;;;-143.90;100.00;73956.78;4857216;28;103685;-71
2024/02/10 06:42:36;;;;;;;;;13.50;10.25;;;;;-143.90;100.00;73956.78;4860515;28;103411;-72
2024/02/10 06:45:16;;;;;;;;;8.75;7.50;;;;;-143.90;100.00;73952.63;4860814;28;102329;-72
2024/02/10 06:47:44;;;;;;;;;12.25;10.00;;;;;-143.90;100.00;73948.50;4862814;28;101914;-72
2024/02/10 06:50:14;;;;;;;;;13.00;10.00;;;;;-143.90;100.00;73956.78;4855142;28;105791;-72
2024/02/10 06:52:42;;;;;;;;;8.00;8.00;;;;;-143.90;100.00;73950.56;4863071;28;101990;-72
2024/02/10 06:55:12;;;;;;;;;8.75;6.75;;;;;-143.90;100.00;73946.44;4859653;28;103708;-72
2024/02/10 06:57:43;;;;;;;;;7.25;7.00;;;;;-143.90;100.00;73948.50;4846488;28;101892;-72
2024/02/10 07:00:14;;;;;;;;;8.50;7.00;;;;;-143.90;100.00;73936.09;4860997;28;103693;-72
2024/02/10 07:02:45;;;;;;;;;8.25;7.00;;;;;-143.90;100.00;73936.09;4865036;28;101736;-72
2024/02/10 07:05:13;;;;;;;;;10.75;7.75;;;;;-143.90;100.00;73929.91;4860986;28;102003;-72
2024/02/10 07:07:41;;;;;;;;;11.50;9.75;;;;;-143.90;100.00;73934.03;4862561;28;102039;-72
2024/02/10 07:10:19;;;;;;;;;15.50;13.50;;;;;-143.90;100.00;73936.09;4859001;28;104931;-72
2024/02/10 07:12:48;;;;;;;;;10.75;9.75;;;;;-143.90;100.00;73931.97;4861787;28;102140;-72
2024/02/10 07:15:18;;;;;;;;;13.75;12.50;;;;;-143.90;100.00;73931.97;4863824;28;102923;-72
2024/02/10 07:17:47;;;;;;;;;12.50;10.00;;;;;-143.90;100.00;73925.78;4864951;28;102090;-73
2024/02/10 07:20:20;;;;;;;;;14.25;11.00;;;;;-143.90;100.00;73927.84;4858663;28;103443;-73
2024/02/10 07:22:49;;;;;;;;;17.00;15.25;;;;;-143.90;100.00;73927.84;4860911;28;101875;-73
2024/02/10 07:25:17;;;;;;;;;16.50;12.75;;;;;-143.90;100.00;73929.91;4865179;28;101756;-73
2024/02/10 07:27:48;;;;;;;;;13.00;12.00;;;;;-143.90;100.00;73923.72;4863224;28;101619;-73
2024/02/10 07:30:17;;;;;;;;;13.00;11.75;;;;;-143.90;100.00;73915.44;4862215;28;103424;-73
2024/02/10 07:32:44;;;;;;;;;17.00;14.00;;;;;-143.90;100.00;73909.25;4867206;28;102385;-73
2024/02/10 07:35:15;;;;;;;;;14.50;9.75;;;;;-143.90;100.00;73903.03;4865312;28;102223;-73
2024/02/10 07:37:46;;;;;;;;;9.00;9.00;;;;;-143.90;100.00;73894.78;4869855;28;101947;-71
2024/02/10 07:40:16;;;;;;;;;10.50;8.00;;;;;-143.90;100.00;73890.63;4862010;28;103377;-72
2024/02/10 07:42:43;;;;;;;;;6.50;5.00;;;;;-143.90;100.00;73888.56;4858688;28;101953;-72
2024/02/10 07:45:10;;;;;;;;;7.50;6.00;;;;;-143.90;100.00;73884.44;4845067;28;101849;-72
2024/02/10 07:47:37;;;;;;;;;7.00;6.00;;;;;-143.90;100.00;73878.25;4865995;28;103488;-72
2024/02/10 07:50:05;;;;;;;;;6.25;6.25;;;;;-143.90;100.00;73867.91;4853736;28;103529;-72
2024/02/10 07:52:32;;;;;;;;;3.75;3.75;;;;;-143.90;100.00;73863.78;4858449;28;102731;-72
2024/02/10 07:54:59;;;;;;;;;4.75;4.50;;;;;-143.90;100.00;73865.84;4861960;28;102242;-72
2024/02/10 07:57:26;;;;;;;;;4.00;4.00;;;;;-143.90;100.00;73857.56;4865671;28;104676;-73
2024/02/10 07:59:55;;;;;;;;;8.00;4.75;;;;;-143.90;100.00;73859.63;4855522;28;103590;-72
2024/02/10 08:02:25;;;;;;;;;9.25;8.00;;;;;-143.90;100.00;73859.63;4858993;28;102657;-73
2024/02/10 08:04:56;;;;;;;;;7.50;7.00;;;;;-143.90;100.00;73861.69;4860036;28;101657;-72
2024/02/10 08:07:29;;;;;;;;;4.00;4.00;;;;;-143.90;100.00;73861.69;4862656;28;101845;-73
2024/02/10 08:09:58;;;;;;;;;4.75;4.75;;;;;-143.90;100.00;73857.56;4850870;28;108324;-72
2024/02/10 08:12:26;;;;;;;;;6.75;6.00;;;;;-143.90;100.00;73849.31;4862347;28;101743;-72
2024/02/10 08:14:55;;;;;;;;;7.25;6.00;;;;;-143.90;100.00;73859.63;4862287;28;101930;-72
2024/02/10 08:17:30;;;;;;;;;9.25;8.25;;;;;-143.90;100.00;73853.44;4858925;28;102192;-72
2024/02/10 08:19:59;;;;;;;;;9.25;7.25;;;;;-143.90;100.00;73853.44;4854324;28;108026;-72
2024/02/10 08:22:27;;;;;;;;;7.00;7.00;;;;;-143.90;100.00;73847.25;4862543;28;102682;-72
2024/02/10 08:24:55;;;;;;;;;9.00;7.25;;;;;-143.90;100.00;73859.63;4861579;28;102025;-71
2024/02/10 08:27:25;;;;;;;;;9.50;8.00;;;;;-143.90;100.00;73855.50;4847059;28;102204;-74
2024/02/10 08:29:54;;;;;;;;;10.00;8.25;;;;;-143.90;100.00;73851.38;4858499;28;107250;-72
2024/02/10 08:32:21;;;;;;;;;9.25;7.75;;;;;-143.90;100.00;73845.16;4857662;28;103187;-72
2024/02/10 08:34:51;;;;;;;;;4.25;4.25;;;;;-143.90;100.00;73832.78;4866105;28;101705;-72
2024/02/10 08:37:18;;;;;;;;;8.75;7.75;;;;;-143.90;100.00;73824.50;4846520;28;101874;-72
2024/02/10 08:39:46;;;;;;;;;10.50;7.75;;;;;-143.90;100.00;73812.09;4851260;28;103333;-72
2024/02/10 08:42:13;;;;;;;;;9.75;8.75;;;;;-143.90;100.00;73803.84;4845860;28;102171;-71
2024/02/10 08:44:40;;;;;;;;;5.00;4.50;;;;;-143.90;100.00;73783.16;4862013;28;103169;-73
2024/02/10 08:47:07;;;;;;;;;3.00;3.00;;;;;-143.90;100.00;73770.78;4861729;28;103093;-72
2024/02/10 08:49:40;;;;;;;;;6.75;5.25;;;;;-143.90;100.00;73752.16;4859410;28;103732;-73
2024/02/10 08:52:15;;;;;;;;;4.00;3.00;;;;;-143.90;100.00;73737.69;4855717;28;101836;-71
2024/02/10 08:54:44;;;;;;;;;9.00;8.25;;;;;-143.90;100.00;73737.69;4863087;28;101981;-72
2024/02/10 08:57:11;;;;;;;;;15.00;10.00;;;;;-143.90;100.00;73733.56;4860097;28;103204;-71
2024/02/10 08:59:41;;;;;;;;;11.50;10.75;;;;;-143.90;100.00;73725.31;4863631;28;103032;-72
2024/02/10 09:02:09;;;;;;;;;7.00;6.75;;;;;-143.90;100.00;73712.91;4853097;28;101718;-72
2024/02/10 09:04:39;;;;;;;;;7.00;4.50;;;;;-143.90;100.00;73700.50;4861391;28;103018;-72
2024/02/10 09:07:07;;;;;;;;;8.75;8.00;;;;;-143.90;100.00;73690.16;4863416;28;104537;-72
2024/02/10 09:09:34;;;;;;;;;4.75;4.00;;;;;-143.90;100.00;73683.97;4859694;28;103343;-73
2024/02/10 09:12:01;;;;;;;;;5.25;3.25;;;;;-143.90;100.00;73686.03;4850572;28;101842;-73
2024/02/10 09:14:29;;;;;;;;;6.75;6.75;;;;;-143.90;100.00;73683.97;4855371;28;101933;-72
2024/02/10 09:16:56;;;;;;;;;7.75;6.00;;;;;-143.90;100.00;73677.78;4861386;28;102916;-72
2024/02/10 09:19:23;;;;;;;;;5.25;5.00;;;;;-143.90;100.00;73681.91;4865135;28;108488;-74
2024/02/10 09:21:55;;;;;;;;;8.00;4.00;;;;;-143.90;100.00;73677.78;4851821;28;101644;-72
2024/02/10 09:24:23;;;;;;;;;4.00;4.00;;;;;-143.90;100.00;73679.84;4864205;28;102155;-72
2024/02/10 09:26:52;;;;;;;;;7.00;5.25;;;;;-143.90;100.00;73675.69;4858361;28;101980;-73
2024/02/10 09:29:19;;;;;;;;;7.00;5.75;;;;;-143.90;100.00;73671.56;4864252;28;103441;-73
2024/02/10 09:31:46;;;;;;;;;4.75;4.00;;;;;-143.90;100.00;73671.56;4837820;28;102444;-73
2024/02/10 09:34:13;;;;;;;;;5.25;4.00;;;;;-143.90;100.00;73671.56;4865919;28;101636;-73
2024/02/10 09:36:43;;;;;;;;;2.50;1.00;;;;;-143.90;100.00;73667.44;4864251;28;101894;-73
2024/02/10 09:39:13;;;;;;;;;4.25;4.25;;;;;-143.90;100.00;73663.31;4855943;28;103636;-73
2024/02/10 09:41:41;;;;;;;;;7.00;7.00;;;;;-143.90;100.00;73663.31;4860720;28;103178;-73
2024/02/10 09:44:12;;;;;;;;;8.00;5.00;;;;;-143.90;100.00;73655.03;4863838;28;102038;-73
2024/02/10 09:46:39;;;;;;;;;5.00;4.25;;;;;-143.90;100.00;73648.84;4864889;28;102252;-74
2024/02/10 09:49:09;;;;;;;;;3.75;3.25;;;;;-143.90;100.00;73642.63;4864948;28;103466;-74
2024/02/10 09:51:43;;;;;;;;;5.00;5.00;;;;;-143.90;100.00;73619.91;4847482;28;102051;-74
2024/02/10 09:54:13;;;;;;;;;5.00;3.00;;;;;-143.90;100.00;73607.50;4863698;28;101568;-74
2024/02/10 09:56:41;;;;;;;;;4.00;3.00;;;;;-143.90;100.00;73601.31;4875567;28;102252;-74
2024/02/10 09:59:11;;;;;;;;;4.00;3.25;;;;;-143.90;100.00;73588.91;4872228;28;103545;-74
2024/02/10 10:01:39;;;;;;;;;3.00;3.00;;;;;-143.90;100.00;73580.63;4861043;28;101877;-73
2024/02/10 10:04:11;;;;;;;;;3.25;2.75;;;;;-143.90;100.00;73570.31;4860999;28;101559;-74
2024/02/10 10:06:43;;;;;;;;;10.50;10.00;;;;;-143.90;100.00;73564.09;4867059;28;103295;-73
2024/02/10 10:09:12;;;;;;;;;6.25;5.00;;;;;-143.90;100.00;73555.84;4864209;28;103512;-74
2024/02/10 10:11:43;;;;;;;;;3.75;3.00;;;;;-143.90;100.00;73543.44;4857222;28;101845;-74
2024/02/10 10:14:13;;;;;;;;;6.50;6.50;;;;;-143.90;100.00;73559.97;4865476;28;101783;-74
2024/02/10 10:16:41;;;;;;;;;7.25;6.00;;;;;-143.90;100.00;73551.72;4863183;28;102403;-74
2024/02/10 10:19:08;;;;;;;;;12.00;9.00;;;;;-143.90;100.00;73562.03;4862798;28;103367;-74
2024/02/10 10:21:36;;;;;;;;;11.00;10.00;;;;;-143.90;100.00;73555.84;4863563;28;104137;-74
2024/02/10 10:24:03;;;;;;;;;5.00;4.00;;;;;-143.90;100.00;73549.63;4842022;28;101687;-74
2024/02/10 10:26:31;;;;;;;;;8.50;8.00;;;;;-143.90;100.00;73526.91;4863270;28;102062;-74
2024/02/10 10:28:58;;;;;;;;;9.25;9.00;;;;;-143.90;100.00;73500.03;4865078;28;103400;-73
2024/02/10 10:31:28;;;;;;;;;8.75;8.00;;;;;-143.90;100.00;73502.09;4870385;28;101892;-74
2024/02/10 10:33:55;;;;;;;;;8.50;8.50;;;;;-143.90;100.00;73493.84;4864687;28;102061;-74
2024/02/10 10:36:22;;;;;;;;;10.00;8.75;;;;;-143.90;100.00;73483.50;4865132;28;101938;-74
2024/02/10 10:38:49;;;;;;;;;11.50;7.50;;;;;-143.90;100.00;73475.25;4850491;28;103246;-74
2024/02/10 10:41:18;;;;;;;;;7.75;6.25;;;;;-143.90;100.00;73464.91;4854675;28;102560;-74
2024/02/10 10:43:47;;;;;;;;;8.00;4.50;;;;;-143.90;100.00;73456.66;4860603;28;101856;-73
2024/02/10 10:46:19;;;;;;;;;5.00;5.00;;;;;-143.90;100.00;73446.31;4862880;28;102767;-74
2024/02/10 10:48:49;;;;;;;;;7.25;6.00;;;;;-143.90;100.00;73440.13;4863043;28;103601;-74
2024/02/10 10:51:25;;;;;;;;;9.25;8.25;;;;;-143.90;100.00;73431.84;4849721;28;101988;-74
2024/02/10 10:53:51;;;;;;;;;9.00;8.00;;;;;-143.90;100.00;73429.78;4836717;28;101793;-74
2024/02/10 10:56:23;;;;;;;;;7.75;5.25;;;;;-143.90;100.00;73415.31;4860621;28;102730;-74
2024/02/10 10:58:57;;;;;;;;;8.75;7.25;;;;;-143.90;100.00;73407.06;4847147;28;104501;-74
2024/02/10 11:01:27;;;;;;;;;9.25;6.75;;;;;-143.90;100.00;73402.91;4840743;28;102136;-74